sensor_id;sensor_type;location;lat;lon;timestamp;temperature;humidity
22153;DHT22;11242;50.536;12.688;2024-03-08T00:00:05;-3.10;99.90
22153;DHT22;11242;50.536;12.688;2024-03-08T00:02:41;-3.10;99.90
22153;DHT22;11242;50.536;12.688;2024-03-08T00:05:08;-3.10;99.90
22153;DHT22;11242;50.536;12.688;2024-03-08T00:07:35;-3.10;99.90
22153;DHT22;11242;50.536;12.688;2024-03-08T00:10:02;-3.10;99.90
22153;DHT22;11242;50.536;12.688;2024-03-08T00:12:28;-3.10;99.90
22153;DHT22;11242;50.536;12.688;2024-03-08T00:14:54;-3.00;99.90
22153;DHT22;11242;50.536;12.688;2024-03-08T00:17:20;-3.00;99.90
22153;DHT22;11242;50.536;12.688;2024-03-08T00:19:51;-3.00;99.90
22153;DHT22;11242;50.536;12.688;2024-03-08T00:22:17;-2.90;99.90
22153;DHT22;11242;50.536;12.688;2024-03-08T00:24:43;-2.90;99.90
22153;DHT22;11242;50.536;12.688;2024-03-08T00:27:09;-2.90;99.90
22153;DHT22;11242;50.536;12.688;2024-03-08T00:29:34;-3.00;99.90
22153;DHT22;11242;50.536;12.688;2024-03-08T00:32:00;-3.00;99.90
22153;DHT22;11242;50.536;12.688;2024-03-08T00:34:26;-3.10;99.90
22153;DHT22;11242;50.536;12.688;2024-03-08T00:36:52;-3.30;99.90
22153;DHT22;11242;50.536;12.688;2024-03-08T00:39:18;-3.30;99.90
22153;DHT22;11242;50.536;12.688;2024-03-08T00:41:45;-3.40;99.90
22153;DHT22;11242;50.536;12.688;2024-03-08T00:44:11;-3.40;99.90
22153;DHT22;11242;50.536;12.688;2024-03-08T00:46:36;-3.50;99.90
22153;DHT22;11242;50.536;12.688;2024-03-08T00:49:02;-3.50;99.90
22153;DHT22;11242;50.536;12.688;2024-03-08T00:51:27;-3.50;99.90
22153;DHT22;11242;50.536;12.688;2024-03-08T00:53:53;-3.40;99.90
22153;DHT22;11242;50.536;12.688;2024-03-08T00:56:19;-3.60;99.90
22153;DHT22;11242;50.536;12.688;2024-03-08T00:58:44;-3.70;99.90
22153;DHT22;11242;50.536;12.688;2024-03-08T01:01:10;-3.70;99.90
22153;DHT22;11242;50.536;12.688;2024-03-08T01:03:36;-3.70;99.90
22153;DHT22;11242;50.536;12.688;2024-03-08T01:06:02;-3.40;99.90
22153;DHT22;11242;50.536;12.688;2024-03-08T01:08:27;-3.50;99.90
22153;DHT22;11242;50.536;12.688;2024-03-08T01:10:53;-3.50;99.90
22153;DHT22;11242;50.536;12.688;2024-03-08T01:13:19;-3.40;99.90
22153;DHT22;11242;50.536;12.688;2024-03-08T01:15:45;-3.50;99.90
22153;DHT22;11242;50.536;12.688;2024-03-08T01:18:11;-3.50;99.90
22153;DHT22;11242;50.536;12.688;2024-03-08T01:20:37;-3.60;99.90
22153;DHT22;11242;50.536;12.688;2024-03-08T01:23:02;-3.60;99.90
22153;DHT22;11242;50.536;12.688;2024-03-08T01:25:31;-3.50;99.90
22153;DHT22;11242;50.536;12.688;2024-03-08T01:27:57;-3.50;99.90
22153;DHT22;11242;50.536;12.688;2024-03-08T01:30:22;-3.60;99.90
22153;DHT22;11242;50.536;12.688;2024-03-08T01:32:48;-3.60;99.90
22153;DHT22;11242;50.536;12.688;2024-03-08T01:35:14;-3.80;99.90
22153;DHT22;11242;50.536;12.688;2024-03-08T01:37:39;-3.80;99.90
22153;DHT22;11242;50.536;12.688;2024-03-08T01:40:06;-3.70;99.90
22153;DHT22;11242;50.536;12.688;2024-03-08T01:42:34;-3.70;99.90
22153;DHT22;11242;50.536;12.688;2024-03-08T01:45:06;-3.70;99.90
22153;DHT22;11242;50.536;12.688;2024-03-08T01:47:32;-3.60;99.90
22153;DHT22;11242;50.536;12.688;2024-03-08T01:49:59;-3.50;99.90
22153;DHT22;11242;50.536;12.688;2024-03-08T01:52:27;-3.70;99.90
22153;DHT22;11242;50.536;12.688;2024-03-08T01:54:53;-3.60;99.90
22153;DHT22;11242;50.536;12.688;2024-03-08T01:57:19;-3.60;99.90
22153;DHT22;11242;50.536;12.688;2024-03-08T01:59:44;-3.80;99.90
22153;DHT22;11242;50.536;12.688;2024-03-08T02:02:11;-3.80;99.90
22153;DHT22;11242;50.536;12.688;2024-03-08T02:04:40;-3.70;99.90
22153;DHT22;11242;50.536;12.688;2024-03-08T02:07:06;-3.80;99.90
22153;DHT22;11242;50.536;12.688;2024-03-08T02:09:31;-3.70;99.90
22153;DHT22;11242;50.536;12.688;2024-03-08T02:11:57;-3.60;99.90
22153;DHT22;11242;50.536;12.688;2024-03-08T02:14:24;-3.60;99.90
22153;DHT22;11242;50.536;12.688;2024-03-08T02:16:50;-3.70;99.90
22153;DHT22;11242;50.536;12.688;2024-03-08T02:19:16;-3.60;99.90
22153;DHT22;11242;50.536;12.688;2024-03-08T02:21:42;-3.60;99.90
22153;DHT22;11242;50.536;12.688;2024-03-08T02:24:08;-3.60;99.90
22153;DHT22;11242;50.536;12.688;2024-03-08T02:26:34;-3.70;99.90
22153;DHT22;11242;50.536;12.688;2024-03-08T02:29:01;-3.80;99.90
22153;DHT22;11242;50.536;12.688;2024-03-08T02:31:27;-3.90;99.90
22153;DHT22;11242;50.536;12.688;2024-03-08T02:33:52;-3.90;99.90
22153;DHT22;11242;50.536;12.688;2024-03-08T02:36:18;-3.90;99.90
22153;DHT22;11242;50.536;12.688;2024-03-08T02:38:43;-3.90;99.90
22153;DHT22;11242;50.536;12.688;2024-03-08T02:41:09;-4.00;99.90
22153;DHT22;11242;50.536;12.688;2024-03-08T02:43:35;-4.00;99.90
22153;DHT22;11242;50.536;12.688;2024-03-08T02:46:01;-3.90;99.90
22153;DHT22;11242;50.536;12.688;2024-03-08T02:48:26;-3.90;99.90
22153;DHT22;11242;50.536;12.688;2024-03-08T02:50:52;-3.90;99.90
22153;DHT22;11242;50.536;12.688;2024-03-08T02:53:17;-3.90;99.90
22153;DHT22;11242;50.536;12.688;2024-03-08T02:55:44;-3.90;99.90
22153;DHT22;11242;50.536;12.688;2024-03-08T02:58:10;-4.00;99.90
22153;DHT22;11242;50.536;12.688;2024-03-08T03:00:36;-3.90;99.90
22153;DHT22;11242;50.536;12.688;2024-03-08T03:03:02;-3.90;99.90
22153;DHT22;11242;50.536;12.688;2024-03-08T03:05:29;-3.90;99.90
22153;DHT22;11242;50.536;12.688;2024-03-08T03:07:58;-3.90;99.90
22153;DHT22;11242;50.536;12.688;2024-03-08T03:10:24;-3.80;99.90
22153;DHT22;11242;50.536;12.688;2024-03-08T03:12:49;-3.90;99.90
22153;DHT22;11242;50.536;12.688;2024-03-08T03:15:15;-3.90;99.90
22153;DHT22;11242;50.536;12.688;2024-03-08T03:17:47;-3.80;99.90
22153;DHT22;11242;50.536;12.688;2024-03-08T03:20:13;-3.80;99.90
22153;DHT22;11242;50.536;12.688;2024-03-08T03:22:40;-3.90;99.90
22153;DHT22;11242;50.536;12.688;2024-03-08T03:25:12;-3.70;99.90
22153;DHT22;11242;50.536;12.688;2024-03-08T03:27:38;-3.20;99.90
22153;DHT22;11242;50.536;12.688;2024-03-08T03:30:06;-2.70;99.90
22153;DHT22;11242;50.536;12.688;2024-03-08T03:32:50;-2.30;99.90
22153;DHT22;11242;50.536;12.688;2024-03-08T03:35:20;-2.10;99.90
22153;DHT22;11242;50.536;12.688;2024-03-08T03:37:47;-2.10;99.90
22153;DHT22;11242;50.536;12.688;2024-03-08T03:40:34;-2.00;99.90
22153;DHT22;11242;50.536;12.688;2024-03-08T03:43:01;-1.90;99.90
22153;DHT22;11242;50.536;12.688;2024-03-08T03:45:28;-1.80;99.90
22153;DHT22;11242;50.536;12.688;2024-03-08T03:47:53;-1.70;99.90
22153;DHT22;11242;50.536;12.688;2024-03-08T03:50:20;-1.60;99.90
22153;DHT22;11242;50.536;12.688;2024-03-08T03:52:46;-1.50;99.90
22153;DHT22;11242;50.536;12.688;2024-03-08T03:55:12;-1.50;99.90
22153;DHT22;11242;50.536;12.688;2024-03-08T03:57:38;-1.60;99.90
22153;DHT22;11242;50.536;12.688;2024-03-08T04:00:05;-1.60;99.90
22153;DHT22;11242;50.536;12.688;2024-03-08T04:02:38;-1.80;99.90
22153;DHT22;11242;50.536;12.688;2024-03-08T04:05:07;-1.80;99.90
22153;DHT22;11242;50.536;12.688;2024-03-08T04:07:34;-1.90;99.90
22153;DHT22;11242;50.536;12.688;2024-03-08T04:10:03;-1.80;99.90
22153;DHT22;11242;50.536;12.688;2024-03-08T04:12:29;-1.90;99.90
22153;DHT22;11242;50.536;12.688;2024-03-08T04:14:55;-2.20;99.90
22153;DHT22;11242;50.536;12.688;2024-03-08T04:17:22;-2.30;99.90
22153;DHT22;11242;50.536;12.688;2024-03-08T04:19:47;-2.10;99.90
22153;DHT22;11242;50.536;12.688;2024-03-08T04:22:14;-2.10;99.90
22153;DHT22;11242;50.536;12.688;2024-03-08T04:24:39;-2.00;99.90
22153;DHT22;11242;50.536;12.688;2024-03-08T04:27:06;-1.90;99.90
22153;DHT22;11242;50.536;12.688;2024-03-08T04:29:32;-1.90;99.90
22153;DHT22;11242;50.536;12.688;2024-03-08T04:31:58;-1.90;99.90
22153;DHT22;11242;50.536;12.688;2024-03-08T04:34:24;-1.90;99.90
22153;DHT22;11242;50.536;12.688;2024-03-08T04:36:49;-1.90;99.90
22153;DHT22;11242;50.536;12.688;2024-03-08T04:39:15;-1.90;99.90
22153;DHT22;11242;50.536;12.688;2024-03-08T04:41:41;-1.90;99.90
22153;DHT22;11242;50.536;12.688;2024-03-08T04:44:09;-2.00;99.90
22153;DHT22;11242;50.536;12.688;2024-03-08T04:46:35;-2.20;99.90
22153;DHT22;11242;50.536;12.688;2024-03-08T04:49:01;-2.40;99.90
22153;DHT22;11242;50.536;12.688;2024-03-08T04:51:26;-2.50;99.90
22153;DHT22;11242;50.536;12.688;2024-03-08T04:53:52;-2.70;99.90
22153;DHT22;11242;50.536;12.688;2024-03-08T04:56:17;-2.70;99.90
22153;DHT22;11242;50.536;12.688;2024-03-08T04:58:47;-2.80;99.90
22153;DHT22;11242;50.536;12.688;2024-03-08T05:01:13;-2.90;99.90
22153;DHT22;11242;50.536;12.688;2024-03-08T05:03:38;-2.90;99.90
22153;DHT22;11242;50.536;12.688;2024-03-08T05:06:04;-2.90;99.90
22153;DHT22;11242;50.536;12.688;2024-03-08T05:08:30;-2.80;99.90
22153;DHT22;11242;50.536;12.688;2024-03-08T05:10:56;-2.70;99.90
22153;DHT22;11242;50.536;12.688;2024-03-08T05:13:21;-2.70;99.90
22153;DHT22;11242;50.536;12.688;2024-03-08T05:15:49;-2.60;99.90
22153;DHT22;11242;50.536;12.688;2024-03-08T05:18:16;-2.40;99.90
22153;DHT22;11242;50.536;12.688;2024-03-08T05:20:42;-2.30;99.90
22153;DHT22;11242;50.536;12.688;2024-03-08T05:23:07;-2.20;99.90
22153;DHT22;11242;50.536;12.688;2024-03-08T05:25:33;-2.00;99.90
22153;DHT22;11242;50.536;12.688;2024-03-08T05:27:59;-1.90;99.90
22153;DHT22;11242;50.536;12.688;2024-03-08T05:30:24;-1.90;99.90
22153;DHT22;11242;50.536;12.688;2024-03-08T05:32:50;-1.80;99.90
22153;DHT22;11242;50.536;12.688;2024-03-08T05:35:15;-1.80;99.90
22153;DHT22;11242;50.536;12.688;2024-03-08T05:37:41;-1.70;99.90
22153;DHT22;11242;50.536;12.688;2024-03-08T05:40:08;-1.80;99.90
22153;DHT22;11242;50.536;12.688;2024-03-08T05:42:36;-1.80;99.90
22153;DHT22;11242;50.536;12.688;2024-03-08T05:45:03;-1.70;99.90
22153;DHT22;11242;50.536;12.688;2024-03-08T05:47:29;-1.70;99.90
22153;DHT22;11242;50.536;12.688;2024-03-08T05:49:54;-1.70;99.90
22153;DHT22;11242;50.536;12.688;2024-03-08T05:52:20;-1.70;99.90
22153;DHT22;11242;50.536;12.688;2024-03-08T05:54:45;-1.70;99.90
22153;DHT22;11242;50.536;12.688;2024-03-08T05:57:12;-1.70;99.90
22153;DHT22;11242;50.536;12.688;2024-03-08T05:59:39;-1.70;99.90
22153;DHT22;11242;50.536;12.688;2024-03-08T06:02:05;-1.70;99.90
22153;DHT22;11242;50.536;12.688;2024-03-08T06:04:30;-1.70;99.90
22153;DHT22;11242;50.536;12.688;2024-03-08T06:06:56;-1.60;99.90
22153;DHT22;11242;50.536;12.688;2024-03-08T06:09:26;-1.60;99.90
22153;DHT22;11242;50.536;12.688;2024-03-08T06:11:52;-1.50;99.90
22153;DHT22;11242;50.536;12.688;2024-03-08T06:14:19;-1.50;99.90
22153;DHT22;11242;50.536;12.688;2024-03-08T06:16:45;-1.40;99.90
22153;DHT22;11242;50.536;12.688;2024-03-08T06:19:11;-1.50;99.90
22153;DHT22;11242;50.536;12.688;2024-03-08T06:21:37;-1.50;99.90
22153;DHT22;11242;50.536;12.688;2024-03-08T06:24:03;-1.50;99.90
22153;DHT22;11242;50.536;12.688;2024-03-08T06:26:28;-1.50;99.90
22153;DHT22;11242;50.536;12.688;2024-03-08T06:28:54;-1.50;99.90
22153;DHT22;11242;50.536;12.688;2024-03-08T06:31:20;-1.20;99.90
22153;DHT22;11242;50.536;12.688;2024-03-08T06:33:45;-0.90;99.90
22153;DHT22;11242;50.536;12.688;2024-03-08T06:36:11;-0.70;99.90
22153;DHT22;11242;50.536;12.688;2024-03-08T06:38:39;-0.50;99.90
22153;DHT22;11242;50.536;12.688;2024-03-08T06:41:09;-0.40;99.90
22153;DHT22;11242;50.536;12.688;2024-03-08T06:43:34;-0.20;99.90
22153;DHT22;11242;50.536;12.688;2024-03-08T06:46:00;-0.20;99.90
22153;DHT22;11242;50.536;12.688;2024-03-08T06:48:25;0.00;99.90
22153;DHT22;11242;50.536;12.688;2024-03-08T06:50:51;0.70;99.90
22153;DHT22;11242;50.536;12.688;2024-03-08T06:53:17;1.60;99.90
22153;DHT22;11242;50.536;12.688;2024-03-08T06:55:45;2.50;99.90
22153;DHT22;11242;50.536;12.688;2024-03-08T06:58:11;2.90;99.90
22153;DHT22;11242;50.536;12.688;2024-03-08T07:00:37;3.30;99.90
22153;DHT22;11242;50.536;12.688;2024-03-08T07:03:02;4.20;99.90
22153;DHT22;11242;50.536;12.688;2024-03-08T07:05:29;5.10;99.90
22153;DHT22;11242;50.536;12.688;2024-03-08T07:07:55;5.60;99.90
22153;DHT22;11242;50.536;12.688;2024-03-08T07:10:21;5.60;99.90
22153;DHT22;11242;50.536;12.688;2024-03-08T07:12:52;6.10;99.90
22153;DHT22;11242;50.536;12.688;2024-03-08T07:15:19;6.50;99.90
22153;DHT22;11242;50.536;12.688;2024-03-08T07:17:45;6.90;99.90
22153;DHT22;11242;50.536;12.688;2024-03-08T07:20:12;7.50;99.90
22153;DHT22;11242;50.536;12.688;2024-03-08T07:22:39;8.30;99.90
22153;DHT22;11242;50.536;12.688;2024-03-08T07:25:08;9.20;99.90
22153;DHT22;11242;50.536;12.688;2024-03-08T07:27:47;9.90;99.90
22153;DHT22;11242;50.536;12.688;2024-03-08T07:30:13;10.40;99.90
22153;DHT22;11242;50.536;12.688;2024-03-08T07:32:58;10.80;97.20
22153;DHT22;11242;50.536;12.688;2024-03-08T07:35:24;10.90;94.00
22153;DHT22;11242;50.536;12.688;2024-03-08T07:37:52;10.90;87.30
22153;DHT22;11242;50.536;12.688;2024-03-08T07:40:20;8.70;91.40
22153;DHT22;11242;50.536;12.688;2024-03-08T07:42:46;8.40;92.10
22153;DHT22;11242;50.536;12.688;2024-03-08T07:45:11;8.30;92.70
22153;DHT22;11242;50.536;12.688;2024-03-08T07:47:38;8.80;92.10
22153;DHT22;11242;50.536;12.688;2024-03-08T07:50:04;8.70;92.40
22153;DHT22;11242;50.536;12.688;2024-03-08T07:52:29;8.20;91.80
22153;DHT22;11242;50.536;12.688;2024-03-08T07:54:55;8.20;92.60
22153;DHT22;11242;50.536;12.688;2024-03-08T07:57:20;9.00;93.70
22153;DHT22;11242;50.536;12.688;2024-03-08T07:59:46;10.00;90.50
22153;DHT22;11242;50.536;12.688;2024-03-08T08:02:12;9.00;90.90
22153;DHT22;11242;50.536;12.688;2024-03-08T08:04:38;9.10;90.40
22153;DHT22;11242;50.536;12.688;2024-03-08T08:07:04;9.80;89.20
22153;DHT22;11242;50.536;12.688;2024-03-08T08:09:29;10.20;85.80
22153;DHT22;11242;50.536;12.688;2024-03-08T08:12:00;9.60;85.70
22153;DHT22;11242;50.536;12.688;2024-03-08T08:14:28;9.70;87.80
22153;DHT22;11242;50.536;12.688;2024-03-08T08:16:54;10.20;84.60
22153;DHT22;11242;50.536;12.688;2024-03-08T08:19:21;11.10;82.20
22153;DHT22;11242;50.536;12.688;2024-03-08T08:21:46;11.00;80.90
22153;DHT22;11242;50.536;12.688;2024-03-08T08:24:12;10.20;81.00
22153;DHT22;11242;50.536;12.688;2024-03-08T08:26:38;9.50;83.00
22153;DHT22;11242;50.536;12.688;2024-03-08T08:29:03;9.00;86.90
22153;DHT22;11242;50.536;12.688;2024-03-08T08:31:29;9.50;84.50
22153;DHT22;11242;50.536;12.688;2024-03-08T08:33:57;9.40;83.70
22153;DHT22;11242;50.536;12.688;2024-03-08T08:36:25;9.80;83.00
22153;DHT22;11242;50.536;12.688;2024-03-08T08:38:51;10.60;81.00
22153;DHT22;11242;50.536;12.688;2024-03-08T08:41:19;10.50;80.90
22153;DHT22;11242;50.536;12.688;2024-03-08T08:43:47;11.00;77.20
22153;DHT22;11242;50.536;12.688;2024-03-08T08:46:12;11.20;79.20
22153;DHT22;11242;50.536;12.688;2024-03-08T08:48:41;11.20;78.10
22153;DHT22;11242;50.536;12.688;2024-03-08T08:51:10;10.20;78.10
22153;DHT22;11242;50.536;12.688;2024-03-08T08:53:38;11.10;80.60
22153;DHT22;11242;50.536;12.688;2024-03-08T08:56:06;11.50;75.40
22153;DHT22;11242;50.536;12.688;2024-03-08T08:58:33;11.60;74.80
22153;DHT22;11242;50.536;12.688;2024-03-08T09:00:58;11.10;74.80
22153;DHT22;11242;50.536;12.688;2024-03-08T09:03:25;11.00;76.20
22153;DHT22;11242;50.536;12.688;2024-03-08T09:05:52;10.90;74.30
22153;DHT22;11242;50.536;12.688;2024-03-08T09:08:18;10.90;73.80
22153;DHT22;11242;50.536;12.688;2024-03-08T09:10:43;10.50;75.00
22153;DHT22;11242;50.536;12.688;2024-03-08T09:13:09;10.10;77.30
22153;DHT22;11242;50.536;12.688;2024-03-08T09:15:37;9.60;77.60
22153;DHT22;11242;50.536;12.688;2024-03-08T09:18:06;10.10;77.60
22153;DHT22;11242;50.536;12.688;2024-03-08T09:20:31;10.90;74.60
22153;DHT22;11242;50.536;12.688;2024-03-08T09:22:57;10.50;73.60
22153;DHT22;11242;50.536;12.688;2024-03-08T09:25:23;10.10;76.20
22153;DHT22;11242;50.536;12.688;2024-03-08T09:27:48;10.40;73.20
22153;DHT22;11242;50.536;12.688;2024-03-08T09:30:15;8.70;77.30
22153;DHT22;11242;50.536;12.688;2024-03-08T09:32:40;7.40;82.40
22153;DHT22;11242;50.536;12.688;2024-03-08T09:35:06;6.30;87.00
22153;DHT22;11242;50.536;12.688;2024-03-08T09:37:33;6.00;90.60
22153;DHT22;11242;50.536;12.688;2024-03-08T09:39:59;5.60;91.80
22153;DHT22;11242;50.536;12.688;2024-03-08T09:42:26;5.70;94.30
22153;DHT22;11242;50.536;12.688;2024-03-08T09:44:51;5.80;94.10
22153;DHT22;11242;50.536;12.688;2024-03-08T09:47:18;5.90;95.60
22153;DHT22;11242;50.536;12.688;2024-03-08T09:49:43;5.80;94.10
22153;DHT22;11242;50.536;12.688;2024-03-08T09:52:09;6.00;95.10
22153;DHT22;11242;50.536;12.688;2024-03-08T09:54:35;6.10;95.10
22153;DHT22;11242;50.536;12.688;2024-03-08T09:57:03;6.20;96.50
22153;DHT22;11242;50.536;12.688;2024-03-08T09:59:29;6.10;99.90
22153;DHT22;11242;50.536;12.688;2024-03-08T10:02:01;6.10;99.90
22153;DHT22;11242;50.536;12.688;2024-03-08T10:04:28;6.20;99.90
22153;DHT22;11242;50.536;12.688;2024-03-08T10:06:59;6.10;99.90
22153;DHT22;11242;50.536;12.688;2024-03-08T10:09:26;6.20;99.90
22153;DHT22;11242;50.536;12.688;2024-03-08T10:11:58;6.30;99.90
22153;DHT22;11242;50.536;12.688;2024-03-08T10:14:27;6.30;99.90
22153;DHT22;11242;50.536;12.688;2024-03-08T10:16:52;6.20;99.90
22153;DHT22;11242;50.536;12.688;2024-03-08T10:19:18;6.20;99.90
22153;DHT22;11242;50.536;12.688;2024-03-08T10:21:48;6.20;99.90
22153;DHT22;11242;50.536;12.688;2024-03-08T10:24:14;6.30;99.90
22153;DHT22;11242;50.536;12.688;2024-03-08T10:26:39;6.20;99.90
22153;DHT22;11242;50.536;12.688;2024-03-08T10:29:05;6.10;99.90
22153;DHT22;11242;50.536;12.688;2024-03-08T10:31:33;6.30;99.90
22153;DHT22;11242;50.536;12.688;2024-03-08T10:33:58;6.50;99.90
22153;DHT22;11242;50.536;12.688;2024-03-08T10:36:24;6.70;99.90
22153;DHT22;11242;50.536;12.688;2024-03-08T10:38:51;6.90;99.90
22153;DHT22;11242;50.536;12.688;2024-03-08T10:41:19;7.00;99.90
22153;DHT22;11242;50.536;12.688;2024-03-08T10:46:56;7.20;99.90
22153;DHT22;11242;50.536;12.688;2024-03-08T10:49:30;7.50;99.90
22153;DHT22;11242;50.536;12.688;2024-03-08T10:51:56;7.60;98.50
22153;DHT22;11242;50.536;12.688;2024-03-08T10:54:23;7.70;96.70
22153;DHT22;11242;50.536;12.688;2024-03-08T10:56:50;7.70;97.00
22153;DHT22;11242;50.536;12.688;2024-03-08T10:59:17;7.60;95.40
22153;DHT22;11242;50.536;12.688;2024-03-08T11:01:44;7.60;95.80
22153;DHT22;11242;50.536;12.688;2024-03-08T11:04:10;7.60;94.80
22153;DHT22;11242;50.536;12.688;2024-03-08T11:09:27;7.50;94.40
22153;DHT22;11242;50.536;12.688;2024-03-08T11:12:20;7.60;95.50
22153;DHT22;11242;50.536;12.688;2024-03-08T11:14:49;7.70;94.60
22153;DHT22;11242;50.536;12.688;2024-03-08T11:17:16;7.70;93.00
22153;DHT22;11242;50.536;12.688;2024-03-08T11:19:47;7.70;93.90
22153;DHT22;11242;50.536;12.688;2024-03-08T11:22:36;7.70;93.70
22153;DHT22;11242;50.536;12.688;2024-03-08T11:25:04;7.60;93.50
22153;DHT22;11242;50.536;12.688;2024-03-08T11:27:35;7.70;93.40
22153;DHT22;11242;50.536;12.688;2024-03-08T11:30:04;7.60;93.30
22153;DHT22;11242;50.536;12.688;2024-03-08T11:32:37;7.70;93.60
22153;DHT22;11242;50.536;12.688;2024-03-08T11:35:06;7.90;93.80
22153;DHT22;11242;50.536;12.688;2024-03-08T11:37:34;7.90;93.40
22153;DHT22;11242;50.536;12.688;2024-03-08T11:40:11;7.90;93.90
22153;DHT22;11242;50.536;12.688;2024-03-08T11:42:39;8.00;94.40
22153;DHT22;11242;50.536;12.688;2024-03-08T11:45:09;7.90;94.00
22153;DHT22;11242;50.536;12.688;2024-03-08T11:47:36;7.90;93.80
22153;DHT22;11242;50.536;12.688;2024-03-08T11:50:06;7.90;94.20
22153;DHT22;11242;50.536;12.688;2024-03-08T11:52:36;7.90;94.60
22153;DHT22;11242;50.536;12.688;2024-03-08T11:55:02;7.90;94.00
22153;DHT22;11242;50.536;12.688;2024-03-08T11:57:28;8.00;94.90
22153;DHT22;11242;50.536;12.688;2024-03-08T11:59:56;8.10;94.70
22153;DHT22;11242;50.536;12.688;2024-03-08T12:02:22;8.10;94.50
22153;DHT22;11242;50.536;12.688;2024-03-08T12:04:56;8.00;95.30
22153;DHT22;11242;50.536;12.688;2024-03-08T12:07:21;8.20;94.70
22153;DHT22;11242;50.536;12.688;2024-03-08T12:12:46;8.60;94.90
22153;DHT22;11242;50.536;12.688;2024-03-08T12:15:14;8.70;94.60
22153;DHT22;11242;50.536;12.688;2024-03-08T12:17:41;8.60;94.80
22153;DHT22;11242;50.536;12.688;2024-03-08T12:20:18;8.60;94.90
22153;DHT22;11242;50.536;12.688;2024-03-08T12:22:44;8.50;95.20
22153;DHT22;11242;50.536;12.688;2024-03-08T12:25:14;8.40;96.50
22153;DHT22;11242;50.536;12.688;2024-03-08T12:27:41;8.10;97.40
22153;DHT22;11242;50.536;12.688;2024-03-08T12:30:43;7.90;98.30
22153;DHT22;11242;50.536;12.688;2024-03-08T12:33:10;7.80;99.30
22153;DHT22;11242;50.536;12.688;2024-03-08T12:35:38;8.00;99.90
22153;DHT22;11242;50.536;12.688;2024-03-08T12:38:03;8.10;99.90
22153;DHT22;11242;50.536;12.688;2024-03-08T12:40:32;8.20;99.90
22153;DHT22;11242;50.536;12.688;2024-03-08T12:43:03;8.20;99.50
22153;DHT22;11242;50.536;12.688;2024-03-08T12:45:29;8.30;99.90
22153;DHT22;11242;50.536;12.688;2024-03-08T12:47:55;8.10;98.00
22153;DHT22;11242;50.536;12.688;2024-03-08T12:50:21;7.90;98.00
22153;DHT22;11242;50.536;12.688;2024-03-08T12:52:48;7.90;98.80
22153;DHT22;11242;50.536;12.688;2024-03-08T12:55:16;7.70;99.00
22153;DHT22;11242;50.536;12.688;2024-03-08T12:57:43;7.50;99.90
22153;DHT22;11242;50.536;12.688;2024-03-08T13:00:09;7.40;99.90
22153;DHT22;11242;50.536;12.688;2024-03-08T13:02:39;7.60;99.90
22153;DHT22;11242;50.536;12.688;2024-03-08T13:05:05;7.50;99.90
22153;DHT22;11242;50.536;12.688;2024-03-08T13:07:31;7.50;99.90
22153;DHT22;11242;50.536;12.688;2024-03-08T13:09:57;7.50;99.90
22153;DHT22;11242;50.536;12.688;2024-03-08T13:12:25;7.50;99.90
22153;DHT22;11242;50.536;12.688;2024-03-08T13:14:50;7.70;99.90
22153;DHT22;11242;50.536;12.688;2024-03-08T13:17:16;7.90;99.90
22153;DHT22;11242;50.536;12.688;2024-03-08T13:19:44;7.80;99.90
22153;DHT22;11242;50.536;12.688;2024-03-08T13:22:09;7.90;99.90
22153;DHT22;11242;50.536;12.688;2024-03-08T13:24:44;7.90;99.90
22153;DHT22;11242;50.536;12.688;2024-03-08T13:27:10;8.00;99.90
22153;DHT22;11242;50.536;12.688;2024-03-08T13:29:45;7.90;99.90
22153;DHT22;11242;50.536;12.688;2024-03-08T13:32:12;7.70;99.90
22153;DHT22;11242;50.536;12.688;2024-03-08T13:34:41;7.70;99.90
22153;DHT22;11242;50.536;12.688;2024-03-08T13:37:06;7.80;99.90
22153;DHT22;11242;50.536;12.688;2024-03-08T13:39:32;7.60;99.90
22153;DHT22;11242;50.536;12.688;2024-03-08T13:42:12;7.50;99.90
22153;DHT22;11242;50.536;12.688;2024-03-08T13:44:45;7.40;99.90
22153;DHT22;11242;50.536;12.688;2024-03-08T13:47:15;7.50;99.90
22153;DHT22;11242;50.536;12.688;2024-03-08T13:49:40;7.50;99.90
22153;DHT22;11242;50.536;12.688;2024-03-08T13:52:06;7.30;99.90
22153;DHT22;11242;50.536;12.688;2024-03-08T13:54:34;7.30;99.90
22153;DHT22;11242;50.536;12.688;2024-03-08T13:57:00;7.30;99.90
22153;DHT22;11242;50.536;12.688;2024-03-08T13:59:27;7.10;99.90
22153;DHT22;11242;50.536;12.688;2024-03-08T14:01:55;7.20;99.90
22153;DHT22;11242;50.536;12.688;2024-03-08T14:04:21;7.20;99.90
22153;DHT22;11242;50.536;12.688;2024-03-08T14:06:46;7.30;99.90
22153;DHT22;11242;50.536;12.688;2024-03-08T14:09:12;7.30;99.90
22153;DHT22;11242;50.536;12.688;2024-03-08T14:11:44;7.30;99.90
22153;DHT22;11242;50.536;12.688;2024-03-08T14:14:12;7.20;99.90
22153;DHT22;11242;50.536;12.688;2024-03-08T14:16:39;7.10;99.90
22153;DHT22;11242;50.536;12.688;2024-03-08T14:19:05;7.00;99.90
22153;DHT22;11242;50.536;12.688;2024-03-08T14:21:31;7.00;99.90
22153;DHT22;11242;50.536;12.688;2024-03-08T14:23:57;6.90;99.90
22153;DHT22;11242;50.536;12.688;2024-03-08T14:26:23;6.90;99.90
22153;DHT22;11242;50.536;12.688;2024-03-08T14:28:48;6.90;99.90
22153;DHT22;11242;50.536;12.688;2024-03-08T14:31:17;6.90;99.90
22153;DHT22;11242;50.536;12.688;2024-03-08T14:33:44;7.00;99.90
22153;DHT22;11242;50.536;12.688;2024-03-08T14:36:14;7.00;99.90
22153;DHT22;11242;50.536;12.688;2024-03-08T14:38:42;6.90;99.90
22153;DHT22;11242;50.536;12.688;2024-03-08T14:41:08;7.00;99.90
22153;DHT22;11242;50.536;12.688;2024-03-08T14:43:34;6.90;99.90
22153;DHT22;11242;50.536;12.688;2024-03-08T14:45:59;7.00;99.90
22153;DHT22;11242;50.536;12.688;2024-03-08T14:48:25;6.90;99.90
22153;DHT22;11242;50.536;12.688;2024-03-08T14:50:50;6.90;99.90
22153;DHT22;11242;50.536;12.688;2024-03-08T14:53:16;6.80;99.90
22153;DHT22;11242;50.536;12.688;2024-03-08T14:55:42;6.70;99.90
22153;DHT22;11242;50.536;12.688;2024-03-08T14:58:08;6.70;99.90
22153;DHT22;11242;50.536;12.688;2024-03-08T15:00:34;6.80;99.90
22153;DHT22;11242;50.536;12.688;2024-03-08T15:03:01;6.70;99.90
22153;DHT22;11242;50.536;12.688;2024-03-08T15:05:36;6.60;99.90
22153;DHT22;11242;50.536;12.688;2024-03-08T15:08:07;6.60;99.90
22153;DHT22;11242;50.536;12.688;2024-03-08T15:10:36;6.60;99.90
22153;DHT22;11242;50.536;12.688;2024-03-08T15:13:02;6.70;99.90
22153;DHT22;11242;50.536;12.688;2024-03-08T15:15:29;6.70;99.90
22153;DHT22;11242;50.536;12.688;2024-03-08T15:17:55;6.60;99.90
22153;DHT22;11242;50.536;12.688;2024-03-08T15:20:23;6.60;99.90
22153;DHT22;11242;50.536;12.688;2024-03-08T15:22:50;6.50;99.90
22153;DHT22;11242;50.536;12.688;2024-03-08T15:25:17;6.40;99.90
22153;DHT22;11242;50.536;12.688;2024-03-08T15:27:49;6.40;99.90
22153;DHT22;11242;50.536;12.688;2024-03-08T15:30:15;6.40;99.90